Terminal Aerodrome Forecast
Issued by NWS

Current Version | Previous Version | Text Only | Print | Product List | Glossary On
Versions: 1 2 3 4 5 6 7 8 9 10 11 12 13 14 15 16 17 18 19 20
000
FTUS41 KCLE 210733 AAA
TAFFDY
TAF AMD
KFDY 210733Z 2108/2206 15008KT P6SM OVC040
     FM211400 18008KT P6SM OVC035
     FM211700 19012KT P6SM BKN035=

USA.gov is the U.S. government's official web portal to all federal, state and local government web resources and services.